FDX544 EGPH-LTBS
Flight info
| Callsign | FDX544 |
|---|---|
| Flight time | 3h 56m |
| Altitude | 35000 |
| Route | TLA UN864 DCS UL612 HON L15 MOTOX DCT DIPCE DCT BEGAR DCT ROLSA DCT SUXAN DCT NIVAS DCT ABLAT DCT SONIK DCT XELMI DCT MEDUX UM867 KOGAT DCT SKJ DCT DISOR UL608 FSK UN128 IMR UN127 KEKIK |
| Aircraft | MD11/H-VGDW/C |
Departure
| Time | 2026-05-04 12:19 |
|---|---|
| Airport | Edinburgh Airport (EGPH) |
Arrival
| Time | 2026-05-04 16:16 |
|---|---|
| Airport | Dalaman International Airport (LTBS) |
| Time | Latitude | Longitude | Altitude | Speed | Heading |
|---|---|---|---|---|---|
| 2026-05-04 12:19 | 55.75484 | -3.46916 | 8764 ft | 276 kts | 169° |
| 2026-05-04 12:19 | 55.73659 | -3.46045 | 9558 ft | 274 kts | 169° |
| 2026-05-04 12:19 | 55.71770 | -3.45164 | 9917 ft | 291 kts | 168° |
| 2026-05-04 12:20 | 55.69746 | -3.44234 | 10102 ft | 311 kts | 168° |
| 2026-05-04 12:20 | 55.67585 | -3.43248 | 10289 ft | 331 kts | 168° |
| 2026-05-04 12:20 | 55.65291 | -3.42204 | 10470 ft | 350 kts | 168° |
| 2026-05-04 12:20 | 55.62864 | -3.41100 | 10649 ft | 370 kts | 168° |
| 2026-05-04 12:21 | 55.60328 | -3.39945 | 11102 ft | 379 kts | 168° |
| 2026-05-04 12:21 | 55.57768 | -3.38779 | 11850 ft | 380 kts | 168° |
| 2026-05-04 12:21 | 55.55206 | -3.37614 | 12623 ft | 381 kts | 168° |
| 2026-05-04 12:21 | 55.52672 | -3.36465 | 13397 ft | 381 kts | 168° |
| 2026-05-04 12:22 | 55.50096 | -3.35481 | 14160 ft | 376 kts | 175° |
| 2026-05-04 12:22 | 55.47480 | -3.35082 | 14628 ft | 382 kts | 180° |
| 2026-05-04 12:22 | 55.44794 | -3.34985 | 15008 ft | 390 kts | 182° |
| 2026-05-04 12:22 | 55.42052 | -3.34991 | 15383 ft | 399 kts | 182° |
| 2026-05-04 12:23 | 55.39258 | -3.35009 | 15912 ft | 402 kts | 182° |
| 2026-05-04 12:23 | 55.36467 | -3.35012 | 16602 ft | 401 kts | 182° |
| 2026-05-04 12:23 | 55.33678 | -3.34996 | 17309 ft | 400 kts | 182° |
| 2026-05-04 12:23 | 55.30924 | -3.34966 | 17938 ft | 403 kts | 181° |
| 2026-05-04 12:24 | 55.28110 | -3.34929 | 18462 ft | 406 kts | 181° |
| 2026-05-04 12:24 | 55.25275 | -3.34887 | 18928 ft | 410 kts | 181° |
| 2026-05-04 12:24 | 55.22409 | -3.34842 | 19393 ft | 413 kts | 181° |
| 2026-05-04 12:24 | 55.19521 | -3.34797 | 19869 ft | 416 kts | 181° |
| 2026-05-04 12:25 | 55.16616 | -3.34750 | 20321 ft | 419 kts | 181° |
| 2026-05-04 12:25 | 55.13682 | -3.34703 | 20810 ft | 423 kts | 181° |
| 2026-05-04 12:25 | 55.10723 | -3.34655 | 21489 ft | 427 kts | 180° |
| 2026-05-04 12:25 | 55.07739 | -3.34608 | 21877 ft | 431 kts | 180° |
| 2026-05-04 12:26 | 55.04732 | -3.34560 | 22557 ft | 434 kts | 180° |
| 2026-05-04 12:26 | 55.01694 | -3.34512 | 23150 ft | 439 kts | 180° |
| 2026-05-04 12:26 | 54.98619 | -3.34464 | 23676 ft | 444 kts | 180° |
| 2026-05-04 12:26 | 54.95512 | -3.34415 | 24083 ft | 447 kts | 180° |
| 2026-05-04 12:27 | 54.92386 | -3.34366 | 24419 ft | 450 kts | 179° |
| 2026-05-04 12:27 | 54.89284 | -3.34317 | 24770 ft | 453 kts | 179° |
| 2026-05-04 12:27 | 54.86120 | -3.34268 | 25119 ft | 456 kts | 179° |
| 2026-05-04 12:27 | 54.82933 | -3.34218 | 25463 ft | 459 kts | 179° |
| 2026-05-04 12:28 | 54.79728 | -3.34168 | 25817 ft | 462 kts | 179° |
| 2026-05-04 12:28 | 54.76507 | -3.34118 | 26161 ft | 465 kts | 179° |
| 2026-05-04 12:28 | 54.73266 | -3.33968 | 26456 ft | 467 kts | 174° |
| 2026-05-04 12:28 | 54.70077 | -3.32898 | 26798 ft | 468 kts | 161° |
| 2026-05-04 12:29 | 54.67017 | -3.30948 | 27121 ft | 470 kts | 155° |
| 2026-05-04 12:29 | 54.64033 | -3.28611 | 27436 ft | 472 kts | 153° |
| 2026-05-04 12:29 | 54.61055 | -3.26157 | 27776 ft | 474 kts | 153° |
| 2026-05-04 12:29 | 54.58058 | -3.23715 | 28094 ft | 477 kts | 153° |
| 2026-05-04 12:30 | 54.55031 | -3.21320 | 28421 ft | 480 kts | 153° |
| 2026-05-04 12:30 | 54.51989 | -3.18979 | 28747 ft | 482 kts | 154° |
| 2026-05-04 12:30 | 54.48934 | -3.16671 | 29038 ft | 485 kts | 154° |
| 2026-05-04 12:30 | 54.45838 | -3.14357 | 29339 ft | 487 kts | 154° |
| 2026-05-04 12:31 | 54.42719 | -3.12040 | 29727 ft | 488 kts | 154° |
| 2026-05-04 12:31 | 54.39589 | -3.09718 | 30032 ft | 491 kts | 154° |
| 2026-05-04 12:31 | 54.36453 | -3.07393 | 30276 ft | 493 kts | 154° |
| 2026-05-04 12:31 | 54.33297 | -3.05056 | 30592 ft | 494 kts | 154° |
| 2026-05-04 12:32 | 54.30134 | -3.02717 | 30873 ft | 495 kts | 154° |
| 2026-05-04 12:32 | 54.23833 | -2.98066 | 31559 ft | 491 kts | 154° |
| 2026-05-04 12:32 | 54.20695 | -2.95757 | 31927 ft | 489 kts | 153° |
| 2026-05-04 12:33 | 54.17578 | -2.93467 | 32353 ft | 485 kts | 153° |
| 2026-05-04 12:33 | 54.14483 | -2.91196 | 32710 ft | 482 kts | 153° |
| 2026-05-04 12:33 | 54.11412 | -2.88945 | 33046 ft | 480 kts | 153° |
| 2026-05-04 12:33 | 54.08343 | -2.86698 | 33364 ft | 479 kts | 153° |
| 2026-05-04 12:34 | 54.05284 | -2.84463 | 33660 ft | 477 kts | 154° |
| 2026-05-04 12:34 | 54.02234 | -2.82238 | 33944 ft | 476 kts | 154° |
| 2026-05-04 12:34 | 53.99180 | -2.80026 | 34194 ft | 474 kts | 154° |
| 2026-05-04 12:34 | 53.96178 | -2.77866 | 34376 ft | 474 kts | 154° |
| 2026-05-04 12:35 | 53.93140 | -2.75682 | 34588 ft | 473 kts | 154° |
| 2026-05-04 12:35 | 53.90118 | -2.73508 | 34764 ft | 473 kts | 154° |
| 2026-05-04 12:35 | 53.87091 | -2.71331 | 34981 ft | 471 kts | 154° |
| 2026-05-04 12:36 | 53.81014 | -2.66957 | 35068 ft | 477 kts | 154° |
| 2026-05-04 12:36 | 53.74868 | -2.62548 | 35067 ft | 481 kts | 154° |
| 2026-05-04 12:37 | 53.68735 | -2.58168 | 35054 ft | 479 kts | 154° |
| 2026-05-04 12:37 | 53.62585 | -2.53786 | 35054 ft | 478 kts | 154° |
| 2026-05-04 12:38 | 53.56460 | -2.49436 | 35074 ft | 478 kts | 154° |
| 2026-05-04 12:38 | 53.50337 | -2.45098 | 35069 ft | 478 kts | 154° |
| 2026-05-04 12:39 | 53.44192 | -2.40761 | 35073 ft | 478 kts | 154° |
| 2026-05-04 12:39 | 53.38096 | -2.36473 | 35088 ft | 478 kts | 154° |
| 2026-05-04 12:40 | 53.31958 | -2.32165 | 35080 ft | 478 kts | 154° |
| 2026-05-04 12:40 | 53.25851 | -2.27891 | 35064 ft | 478 kts | 154° |
| 2026-05-04 12:41 | 53.19723 | -2.23624 | 35072 ft | 477 kts | 154° |
| 2026-05-04 12:41 | 53.13601 | -2.19373 | 35072 ft | 476 kts | 154° |
| 2026-05-04 12:42 | 53.07467 | -2.15116 | 35069 ft | 476 kts | 154° |
| 2026-05-04 12:42 | 53.01356 | -2.10882 | 35067 ft | 476 kts | 154° |
| 2026-05-04 12:43 | 52.95271 | -2.06676 | 35068 ft | 477 kts | 155° |
| 2026-05-04 12:43 | 52.89144 | -2.02455 | 35070 ft | 477 kts | 155° |
| 2026-05-04 12:44 | 52.83003 | -1.98237 | 35072 ft | 477 kts | 155° |
| 2026-05-04 12:44 | 52.76859 | -1.94031 | 35070 ft | 477 kts | 155° |
| 2026-05-04 12:45 | 52.70727 | -1.89845 | 35068 ft | 476 kts | 156° |
| 2026-05-04 12:45 | 52.64644 | -1.85707 | 35071 ft | 475 kts | 156° |
| 2026-05-04 12:46 | 52.58520 | -1.81552 | 35072 ft | 475 kts | 156° |
| 2026-05-04 12:46 | 52.52393 | -1.77409 | 35074 ft | 475 kts | 156° |
| 2026-05-04 12:47 | 52.47307 | -1.73978 | 35078 ft | 475 kts | 157° |
| 2026-05-04 12:47 | 52.40192 | -1.69194 | 35075 ft | 474 kts | 157° |
| 2026-05-04 12:48 | 52.35212 | -1.65341 | 35071 ft | 473 kts | 147° |
| 2026-05-04 12:48 | 52.30218 | -1.58408 | 35072 ft | 471 kts | 132° |
| 2026-05-04 12:49 | 52.25914 | -1.50323 | 35077 ft | 472 kts | 131° |
| 2026-05-04 12:49 | 52.21531 | -1.42341 | 35074 ft | 472 kts | 133° |
| 2026-05-04 12:50 | 52.17023 | -1.34553 | 35075 ft | 472 kts | 134° |
| 2026-05-04 12:50 | 52.12487 | -1.26867 | 35075 ft | 472 kts | 134° |
| 2026-05-04 12:51 | 52.07922 | -1.19160 | 35066 ft | 472 kts | 134° |
| 2026-05-04 12:51 | 52.03366 | -1.11488 | 35057 ft | 472 kts | 135° |
| 2026-05-04 12:52 | 51.98779 | -1.03852 | 35042 ft | 471 kts | 135° |
| 2026-05-04 12:52 | 51.94207 | -0.96243 | 35025 ft | 471 kts | 135° |
| 2026-05-04 12:53 | 51.89617 | -0.88601 | 35026 ft | 474 kts | 135° |
| 2026-05-04 12:53 | 51.85015 | -0.80952 | 35032 ft | 473 kts | 135° |
| 2026-05-04 12:54 | 51.80442 | -0.73375 | 35031 ft | 473 kts | 136° |
| 2026-05-04 12:54 | 51.75840 | -0.65791 | 35033 ft | 472 kts | 136° |
| 2026-05-04 12:55 | 51.71235 | -0.58212 | 35016 ft | 472 kts | 136° |
| 2026-05-04 12:55 | 51.66637 | -0.50654 | 35018 ft | 472 kts | 136° |
| 2026-05-04 12:56 | 51.62028 | -0.43098 | 35020 ft | 472 kts | 136° |
| 2026-05-04 12:56 | 51.57421 | -0.35569 | 35020 ft | 472 kts | 136° |
| 2026-05-04 12:57 | 51.52852 | -0.28122 | 35019 ft | 470 kts | 136° |
| 2026-05-04 12:57 | 51.48225 | -0.20606 | 35019 ft | 470 kts | 136° |
| 2026-05-04 12:58 | 51.43637 | -0.13179 | 35016 ft | 470 kts | 137° |
| 2026-05-04 12:58 | 51.39037 | -0.05753 | 35019 ft | 470 kts | 137° |
| 2026-05-04 12:59 | 51.34444 | 0.01697 | 35013 ft | 470 kts | 135° |
| 2026-05-04 12:59 | 51.30800 | 0.10269 | 34990 ft | 473 kts | 118° |
| 2026-05-04 13:00 | 51.28450 | 0.20094 | 34978 ft | 476 kts | 112° |
| 2026-05-04 13:00 | 51.26220 | 0.30076 | 34963 ft | 476 kts | 114° |
| 2026-05-04 13:01 | 51.23828 | 0.39867 | 34964 ft | 475 kts | 115° |
| 2026-05-04 13:01 | 51.21327 | 0.49666 | 34970 ft | 474 kts | 116° |
| 2026-05-04 13:02 | 51.18821 | 0.59388 | 34969 ft | 474 kts | 116° |
| 2026-05-04 13:02 | 51.16323 | 0.69052 | 34977 ft | 474 kts | 116° |
| 2026-05-04 13:03 | 51.13804 | 0.78773 | 34989 ft | 474 kts | 116° |
| 2026-05-04 13:03 | 51.11279 | 0.88480 | 35006 ft | 474 kts | 116° |
| 2026-05-04 13:04 | 51.08741 | 0.98193 | 35011 ft | 474 kts | 116° |
| 2026-05-04 13:04 | 51.06203 | 1.07830 | 35019 ft | 475 kts | 117° |
| 2026-05-04 13:05 | 51.03612 | 1.17502 | 35013 ft | 475 kts | 117° |
| 2026-05-04 13:05 | 51.01031 | 1.27176 | 35011 ft | 475 kts | 116° |
| 2026-05-04 13:06 | 50.98460 | 1.36834 | 35017 ft | 475 kts | 116° |
| 2026-05-04 13:06 | 50.95611 | 1.46168 | 35009 ft | 470 kts | 126° |
| 2026-05-04 13:07 | 50.91821 | 1.54568 | 35011 ft | 468 kts | 131° |
| 2026-05-04 13:07 | 50.87819 | 1.62777 | 35010 ft | 468 kts | 131° |
| 2026-05-04 13:08 | 50.83906 | 1.70939 | 35001 ft | 468 kts | 130° |
| 2026-05-04 13:08 | 50.80005 | 1.79184 | 35007 ft | 468 kts | 130° |
| 2026-05-04 13:09 | 50.76113 | 1.87415 | 34975 ft | 468 kts | 131° |
| 2026-05-04 13:09 | 50.72211 | 1.95641 | 35005 ft | 467 kts | 131° |
| 2026-05-04 13:10 | 50.68301 | 2.03851 | 35004 ft | 468 kts | 131° |
| 2026-05-04 13:10 | 50.64391 | 2.12037 | 34993 ft | 467 kts | 131° |
| 2026-05-04 13:11 | 50.60504 | 2.20147 | 34988 ft | 467 kts | 131° |
| 2026-05-04 13:11 | 50.56579 | 2.28313 | 34979 ft | 466 kts | 131° |
| 2026-05-04 13:12 | 50.52658 | 2.36445 | 34975 ft | 465 kts | 131° |
| 2026-05-04 13:12 | 50.48745 | 2.44534 | 34974 ft | 465 kts | 131° |
| 2026-05-04 13:13 | 50.44833 | 2.52549 | 34973 ft | 465 kts | 132° |
| 2026-05-04 13:13 | 50.40883 | 2.60570 | 34973 ft | 465 kts | 132° |
| 2026-05-04 13:14 | 50.36939 | 2.68614 | 34968 ft | 465 kts | 131° |
| 2026-05-04 13:14 | 50.33000 | 2.76655 | 34950 ft | 465 kts | 132° |
| 2026-05-04 13:15 | 50.29061 | 2.84674 | 34970 ft | 465 kts | 132° |
| 2026-05-04 13:15 | 50.25134 | 2.92646 | 34972 ft | 465 kts | 132° |
| 2026-05-04 13:16 | 50.21176 | 3.00654 | 34970 ft | 465 kts | 132° |
| 2026-05-04 13:16 | 50.17212 | 3.08650 | 34969 ft | 465 kts | 132° |
| 2026-05-04 13:17 | 50.13244 | 3.16631 | 34970 ft | 465 kts | 132° |
| 2026-05-04 13:17 | 50.09281 | 3.24577 | 34965 ft | 465 kts | 132° |
| 2026-05-04 13:18 | 50.05329 | 3.32474 | 34974 ft | 465 kts | 132° |
| 2026-05-04 13:18 | 50.01324 | 3.40457 | 34974 ft | 464 kts | 132° |
| 2026-05-04 13:19 | 49.97372 | 3.48306 | 34975 ft | 464 kts | 133° |
| 2026-05-04 13:19 | 49.93366 | 3.56184 | 34975 ft | 464 kts | 133° |
| 2026-05-04 13:20 | 49.89347 | 3.64039 | 34957 ft | 464 kts | 133° |
| 2026-05-04 13:20 | 49.85345 | 3.71892 | 34977 ft | 465 kts | 133° |
| 2026-05-04 13:21 | 49.81336 | 3.79760 | 34979 ft | 464 kts | 133° |
| 2026-05-04 13:21 | 49.77320 | 3.87623 | 34978 ft | 464 kts | 133° |
| 2026-05-04 13:22 | 49.73312 | 3.95447 | 34981 ft | 464 kts | 133° |
| 2026-05-04 13:22 | 49.69295 | 4.03262 | 34981 ft | 465 kts | 133° |
| 2026-05-04 13:23 | 49.65287 | 4.11037 | 34980 ft | 465 kts | 133° |
| 2026-05-04 13:23 | 49.61258 | 4.18829 | 34982 ft | 465 kts | 133° |
| 2026-05-04 13:24 | 49.57223 | 4.26609 | 34984 ft | 465 kts | 133° |
| 2026-05-04 13:24 | 49.53177 | 4.34388 | 34982 ft | 465 kts | 133° |
| 2026-05-04 13:25 | 49.47105 | 4.46020 | 34971 ft | 464 kts | 133° |
| 2026-05-04 13:25 | 49.43075 | 4.53690 | 34977 ft | 465 kts | 134° |
| 2026-05-04 13:26 | 49.38977 | 4.61399 | 34981 ft | 465 kts | 134° |
| 2026-05-04 13:26 | 49.34893 | 4.69106 | 34987 ft | 465 kts | 134° |
| 2026-05-04 13:27 | 49.30820 | 4.76805 | 34983 ft | 465 kts | 134° |
| 2026-05-04 13:27 | 49.26733 | 4.84517 | 34986 ft | 465 kts | 134° |
| 2026-05-04 13:28 | 49.22680 | 4.92142 | 34976 ft | 465 kts | 134° |
| 2026-05-04 13:28 | 49.18576 | 4.99838 | 34983 ft | 466 kts | 134° |
| 2026-05-04 13:29 | 49.14484 | 5.07492 | 34984 ft | 465 kts | 134° |
| 2026-05-04 13:29 | 49.10388 | 5.15174 | 34985 ft | 465 kts | 133° |
| 2026-05-04 13:30 | 49.06519 | 5.23086 | 34989 ft | 467 kts | 130° |
| 2026-05-04 13:30 | 49.02737 | 5.31164 | 34971 ft | 468 kts | 130° |
| 2026-05-04 13:31 | 48.98949 | 5.39242 | 34993 ft | 469 kts | 130° |
| 2026-05-04 13:31 | 48.95162 | 5.47260 | 34996 ft | 469 kts | 130° |
| 2026-05-04 13:32 | 48.91344 | 5.55303 | 34993 ft | 468 kts | 131° |
| 2026-05-04 13:32 | 48.87525 | 5.63320 | 34982 ft | 468 kts | 131° |
| 2026-05-04 13:33 | 48.83707 | 5.71310 | 34983 ft | 468 kts | 131° |
| 2026-05-04 13:33 | 48.79864 | 5.79328 | 35005 ft | 470 kts | 131° |
| 2026-05-04 13:34 | 48.76009 | 5.87351 | 35012 ft | 470 kts | 131° |
| 2026-05-04 13:34 | 48.72813 | 5.93985 | 35015 ft | 470 kts | 131° |
| 2026-05-04 13:35 | 48.67090 | 6.05822 | 35020 ft | 469 kts | 131° |
| 2026-05-04 13:36 | 48.63220 | 6.13795 | 35023 ft | 471 kts | 131° |
| 2026-05-04 13:36 | 48.59294 | 6.21795 | 35018 ft | 473 kts | 131° |
| 2026-05-04 13:37 | 48.55371 | 6.29755 | 35018 ft | 473 kts | 131° |
| 2026-05-04 13:37 | 48.51468 | 6.37702 | 35011 ft | 472 kts | 131° |
| 2026-05-04 13:38 | 48.47567 | 6.45645 | 35010 ft | 472 kts | 131° |
| 2026-05-04 13:38 | 48.43647 | 6.53605 | 35009 ft | 473 kts | 131° |
| 2026-05-04 13:39 | 48.39704 | 6.61585 | 35011 ft | 475 kts | 131° |
| 2026-05-04 13:39 | 48.35771 | 6.69526 | 35012 ft | 474 kts | 131° |
| 2026-05-04 13:40 | 48.31832 | 6.77453 | 35010 ft | 474 kts | 131° |
| 2026-05-04 13:40 | 48.27881 | 6.85380 | 35010 ft | 474 kts | 131° |
| 2026-05-04 13:41 | 48.23917 | 6.93307 | 35001 ft | 477 kts | 131° |
| 2026-05-04 13:41 | 48.19934 | 7.01252 | 35000 ft | 476 kts | 131° |
| 2026-05-04 13:42 | 48.13974 | 7.13100 | 34993 ft | 476 kts | 131° |
| 2026-05-04 13:42 | 48.09962 | 7.20998 | 34990 ft | 476 kts | 132° |
| 2026-05-04 13:43 | 48.05938 | 7.28859 | 34999 ft | 477 kts | 132° |
| 2026-05-04 13:43 | 48.01900 | 7.36778 | 34996 ft | 479 kts | 131° |
| 2026-05-04 13:44 | 47.97871 | 7.44687 | 34986 ft | 478 kts | 132° |
| 2026-05-04 13:44 | 47.93843 | 7.52574 | 34984 ft | 478 kts | 132° |
| 2026-05-04 13:45 | 47.89879 | 7.60466 | 34984 ft | 479 kts | 130° |
| 2026-05-04 13:45 | 47.86060 | 7.68615 | 34983 ft | 481 kts | 129° |
| 2026-05-04 13:46 | 47.82257 | 7.76862 | 34986 ft | 482 kts | 129° |
| 2026-05-04 13:46 | 47.78453 | 7.85070 | 34985 ft | 482 kts | 129° |
| 2026-05-04 13:47 | 47.74634 | 7.93254 | 34987 ft | 482 kts | 129° |
| 2026-05-04 13:47 | 47.70800 | 8.01439 | 34985 ft | 482 kts | 129° |
| 2026-05-04 13:48 | 47.66958 | 8.09615 | 34980 ft | 482 kts | 129° |
| 2026-05-04 13:48 | 47.63136 | 8.17727 | 34977 ft | 482 kts | 129° |
| 2026-05-04 13:49 | 47.59290 | 8.25865 | 34982 ft | 482 kts | 129° |
| 2026-05-04 13:49 | 47.55432 | 8.34003 | 34985 ft | 482 kts | 129° |
| 2026-05-04 13:50 | 47.51571 | 8.42122 | 34977 ft | 484 kts | 129° |
| 2026-05-04 13:50 | 47.47683 | 8.50276 | 34992 ft | 486 kts | 129° |
| 2026-05-04 13:51 | 47.43786 | 8.58421 | 34994 ft | 484 kts | 129° |
| 2026-05-04 13:51 | 47.39860 | 8.66517 | 34993 ft | 484 kts | 129° |
| 2026-05-04 13:52 | 47.34010 | 8.78600 | 34987 ft | 484 kts | 129° |
| 2026-05-04 13:53 | 47.30083 | 8.86725 | 34985 ft | 485 kts | 128° |
| 2026-05-04 13:53 | 47.26302 | 8.94926 | 34983 ft | 486 kts | 127° |
| 2026-05-04 13:54 | 47.20760 | 9.07449 | 34973 ft | 488 kts | 126° |
| 2026-05-04 13:55 | 47.15196 | 9.19953 | 34971 ft | 484 kts | 126° |
| 2026-05-04 13:55 | 47.09663 | 9.32293 | 34973 ft | 484 kts | 126° |
| 2026-05-04 13:56 | 47.05947 | 9.40548 | 34990 ft | 484 kts | 126° |
| 2026-05-04 13:57 | 47.00364 | 9.52906 | 34988 ft | 482 kts | 127° |
| 2026-05-04 13:58 | 46.92937 | 9.69262 | 35054 ft | 484 kts | 126° |
| 2026-05-04 13:58 | 46.87325 | 9.81556 | 35072 ft | 484 kts | 127° |
| 2026-05-04 13:59 | 46.83610 | 9.89662 | 35098 ft | 483 kts | 127° |
| 2026-05-04 14:00 | 46.77934 | 10.01875 | 35120 ft | 483 kts | 127° |
| 2026-05-04 14:00 | 46.72300 | 10.14040 | 35107 ft | 482 kts | 127° |
| 2026-05-04 14:01 | 46.68547 | 10.22139 | 35106 ft | 483 kts | 127° |
| 2026-05-04 14:02 | 46.62922 | 10.34235 | 35103 ft | 480 kts | 127° |
| 2026-05-04 14:02 | 46.59178 | 10.42251 | 35058 ft | 481 kts | 127° |
| 2026-05-04 14:03 | 46.55406 | 10.50333 | 35071 ft | 481 kts | 126° |
| 2026-05-04 14:03 | 46.52100 | 10.58712 | 35059 ft | 483 kts | 120° |
| 2026-05-04 14:04 | 46.47535 | 10.71762 | 35051 ft | 483 kts | 120° |
| 2026-05-04 14:04 | 46.44464 | 10.80461 | 35055 ft | 483 kts | 120° |
| 2026-05-04 14:05 | 46.39830 | 10.93395 | 35168 ft | 483 kts | 120° |
| 2026-05-04 14:06 | 46.36706 | 11.02066 | 35208 ft | 483 kts | 120° |
| 2026-05-04 14:06 | 46.33604 | 11.10651 | 35210 ft | 483 kts | 120° |
| 2026-05-04 14:07 | 46.30481 | 11.19270 | 35211 ft | 483 kts | 120° |
| 2026-05-04 14:07 | 46.27342 | 11.27901 | 35023 ft | 484 kts | 120° |
| 2026-05-04 14:08 | 46.24222 | 11.36455 | 35038 ft | 484 kts | 120° |
| 2026-05-04 14:08 | 46.21083 | 11.45035 | 35047 ft | 484 kts | 120° |
| 2026-05-04 14:09 | 46.16341 | 11.57935 | 35053 ft | 484 kts | 120° |
| 2026-05-04 14:10 | 46.11575 | 11.70688 | 35056 ft | 484 kts | 121° |
| 2026-05-04 14:10 | 46.08389 | 11.79251 | 35055 ft | 484 kts | 120° |
| 2026-05-04 14:11 | 46.05210 | 11.87800 | 35049 ft | 483 kts | 121° |
| 2026-05-04 14:11 | 46.00448 | 12.00564 | 35044 ft | 484 kts | 120° |
| 2026-05-04 14:12 | 45.97263 | 12.09065 | 35046 ft | 484 kts | 120° |
| 2026-05-04 14:13 | 45.92442 | 12.21879 | 35053 ft | 484 kts | 121° |
| 2026-05-04 14:13 | 45.89255 | 12.30331 | 35051 ft | 484 kts | 121° |
| 2026-05-04 14:14 | 45.86072 | 12.38851 | 35054 ft | 485 kts | 120° |
| 2026-05-04 14:14 | 45.81310 | 12.51668 | 35057 ft | 485 kts | 120° |
| 2026-05-04 14:15 | 45.74959 | 12.68687 | 35051 ft | 485 kts | 120° |
| 2026-05-04 14:16 | 45.70170 | 12.81442 | 35052 ft | 486 kts | 120° |
| 2026-05-04 14:17 | 45.65351 | 12.94219 | 35057 ft | 486 kts | 120° |
| 2026-05-04 14:18 | 45.60538 | 13.06924 | 35068 ft | 487 kts | 120° |
| 2026-05-04 14:19 | 45.54053 | 13.23943 | 35072 ft | 487 kts | 120° |
| 2026-05-04 14:19 | 45.50799 | 13.32433 | 35071 ft | 487 kts | 121° |
| 2026-05-04 14:20 | 45.47516 | 13.40877 | 35077 ft | 488 kts | 121° |
| 2026-05-04 14:20 | 45.44231 | 13.49343 | 35075 ft | 488 kts | 120° |
| 2026-05-04 14:21 | 45.39335 | 13.62021 | 35072 ft | 488 kts | 120° |
| 2026-05-04 14:21 | 45.36196 | 13.70593 | 35072 ft | 489 kts | 118° |
| 2026-05-04 14:22 | 45.33132 | 13.79182 | 35091 ft | 491 kts | 118° |
| 2026-05-04 14:22 | 45.30032 | 13.87852 | 35077 ft | 489 kts | 118° |
| 2026-05-04 14:23 | 45.25385 | 14.00745 | 35108 ft | 489 kts | 118° |
| 2026-05-04 14:24 | 45.22277 | 14.09321 | 35114 ft | 491 kts | 118° |
| 2026-05-04 14:24 | 45.19152 | 14.17920 | 35125 ft | 491 kts | 118° |
| 2026-05-04 14:25 | 45.16547 | 14.25067 | 35128 ft | 490 kts | 118° |
| 2026-05-04 14:25 | 45.11831 | 14.37959 | 35129 ft | 491 kts | 118° |
| 2026-05-04 14:26 | 45.08675 | 14.46555 | 35112 ft | 493 kts | 118° |
| 2026-05-04 14:26 | 45.05511 | 14.55145 | 35130 ft | 492 kts | 118° |
| 2026-05-04 14:27 | 45.02335 | 14.63738 | 35106 ft | 493 kts | 118° |
| 2026-05-04 14:27 | 44.99153 | 14.72241 | 35121 ft | 494 kts | 118° |
| 2026-05-04 14:28 | 44.95912 | 14.80867 | 35110 ft | 495 kts | 118° |
| 2026-05-04 14:28 | 44.92707 | 14.89433 | 35110 ft | 494 kts | 118° |
| 2026-05-04 14:29 | 44.86278 | 15.06591 | 35101 ft | 494 kts | 118° |
| 2026-05-04 14:30 | 44.83067 | 15.15119 | 35097 ft | 494 kts | 118° |
| 2026-05-04 14:31 | 44.78209 | 15.27970 | 35100 ft | 494 kts | 118° |
| 2026-05-04 14:32 | 44.71719 | 15.45045 | 35091 ft | 498 kts | 118° |
| 2026-05-04 14:32 | 44.68439 | 15.53635 | 35089 ft | 497 kts | 118° |
| 2026-05-04 14:33 | 44.65173 | 15.62160 | 35081 ft | 496 kts | 118° |
| 2026-05-04 14:33 | 44.61889 | 15.70694 | 35085 ft | 499 kts | 118° |
| 2026-05-04 14:34 | 44.58552 | 15.79247 | 35087 ft | 500 kts | 118° |
| 2026-05-04 14:34 | 44.55222 | 15.87803 | 35078 ft | 500 kts | 118° |
| 2026-05-04 14:35 | 44.51891 | 15.96383 | 35083 ft | 500 kts | 118° |
| 2026-05-04 14:35 | 44.48580 | 16.04899 | 35065 ft | 502 kts | 118° |
| 2026-05-04 14:36 | 44.45221 | 16.13493 | 35089 ft | 502 kts | 118° |
| 2026-05-04 14:36 | 44.41793 | 16.21938 | 35090 ft | 502 kts | 120° |
| 2026-05-04 14:37 | 44.38309 | 16.30371 | 35096 ft | 502 kts | 119° |
| 2026-05-04 14:37 | 44.34805 | 16.38853 | 35099 ft | 503 kts | 119° |
| 2026-05-04 14:38 | 44.31310 | 16.47313 | 35088 ft | 503 kts | 119° |
| 2026-05-04 14:38 | 44.27818 | 16.55746 | 35087 ft | 503 kts | 119° |
| 2026-05-04 14:39 | 44.24308 | 16.64197 | 35066 ft | 503 kts | 119° |
| 2026-05-04 14:39 | 44.20801 | 16.72616 | 35074 ft | 502 kts | 119° |
| 2026-05-04 14:40 | 44.15536 | 16.85204 | 35071 ft | 502 kts | 119° |
| 2026-05-04 14:40 | 44.12002 | 16.93625 | 35082 ft | 502 kts | 119° |
| 2026-05-04 14:41 | 44.08491 | 17.01965 | 35061 ft | 503 kts | 119° |
| 2026-05-04 14:42 | 44.01352 | 17.18789 | 35064 ft | 504 kts | 120° |
| 2026-05-04 14:42 | 43.97792 | 17.27089 | 35222 ft | 504 kts | 119° |
| 2026-05-04 14:43 | 43.96004 | 17.31274 | 35374 ft | 504 kts | 119° |
| 2026-05-04 14:43 | 43.94219 | 17.35453 | 35540 ft | 503 kts | 119° |
| 2026-05-04 14:43 | 43.92438 | 17.39625 | 35687 ft | 503 kts | 119° |
| 2026-05-04 14:43 | 43.90657 | 17.43793 | 35837 ft | 502 kts | 119° |
| 2026-05-04 14:44 | 43.88873 | 17.47962 | 35986 ft | 502 kts | 119° |
| 2026-05-04 14:44 | 43.87094 | 17.52113 | 36123 ft | 501 kts | 119° |
| 2026-05-04 14:44 | 43.85313 | 17.56262 | 36316 ft | 500 kts | 119° |
| 2026-05-04 14:44 | 43.83535 | 17.60396 | 36478 ft | 499 kts | 119° |
| 2026-05-04 14:45 | 43.81757 | 17.64525 | 36633 ft | 498 kts | 119° |
| 2026-05-04 14:45 | 43.79981 | 17.68645 | 36744 ft | 498 kts | 119° |
| 2026-05-04 14:45 | 43.78208 | 17.72752 | 36924 ft | 496 kts | 120° |
| 2026-05-04 14:45 | 43.76434 | 17.76853 | 37035 ft | 497 kts | 120° |
| 2026-05-04 14:46 | 43.72866 | 17.85088 | 37081 ft | 501 kts | 120° |
| 2026-05-04 14:46 | 43.69279 | 17.93341 | 37068 ft | 499 kts | 120° |
| 2026-05-04 14:47 | 43.65700 | 18.01550 | 37067 ft | 498 kts | 120° |
| 2026-05-04 14:47 | 43.62143 | 18.09687 | 37070 ft | 498 kts | 120° |
| 2026-05-04 14:48 | 43.58523 | 18.17891 | 37085 ft | 498 kts | 120° |
| 2026-05-04 14:48 | 43.54905 | 18.26072 | 37083 ft | 498 kts | 120° |
| 2026-05-04 14:49 | 43.51336 | 18.34173 | 37089 ft | 498 kts | 120° |
| 2026-05-04 14:49 | 43.47731 | 18.42356 | 37099 ft | 499 kts | 120° |
| 2026-05-04 14:50 | 43.44129 | 18.50509 | 37089 ft | 500 kts | 120° |
| 2026-05-04 14:50 | 43.40497 | 18.58705 | 37078 ft | 499 kts | 120° |
| 2026-05-04 14:51 | 43.36884 | 18.66836 | 37080 ft | 499 kts | 120° |
| 2026-05-04 14:51 | 43.33269 | 18.74947 | 37081 ft | 499 kts | 120° |
| 2026-05-04 14:52 | 43.29642 | 18.83061 | 37082 ft | 498 kts | 120° |
| 2026-05-04 14:52 | 43.25996 | 18.91198 | 37081 ft | 497 kts | 120° |
| 2026-05-04 14:53 | 43.22394 | 18.99212 | 37081 ft | 497 kts | 120° |
| 2026-05-04 14:53 | 43.18751 | 19.07297 | 37082 ft | 498 kts | 120° |
| 2026-05-04 14:54 | 43.15103 | 19.15329 | 37090 ft | 497 kts | 120° |
| 2026-05-04 14:54 | 43.11436 | 19.23341 | 37086 ft | 497 kts | 120° |
| 2026-05-04 14:55 | 43.07781 | 19.31356 | 37088 ft | 497 kts | 120° |
| 2026-05-04 14:55 | 43.04118 | 19.39396 | 37090 ft | 497 kts | 120° |
| 2026-05-04 14:56 | 43.00455 | 19.47417 | 37100 ft | 496 kts | 120° |
| 2026-05-04 14:56 | 42.96793 | 19.55412 | 37095 ft | 497 kts | 120° |
| 2026-05-04 14:57 | 42.93119 | 19.63411 | 37083 ft | 497 kts | 120° |
| 2026-05-04 14:57 | 42.89464 | 19.71345 | 37095 ft | 497 kts | 120° |
| 2026-05-04 14:58 | 42.85771 | 19.79342 | 37094 ft | 499 kts | 120° |
| 2026-05-04 14:58 | 42.82062 | 19.87351 | 37104 ft | 498 kts | 120° |
| 2026-05-04 14:59 | 42.78362 | 19.95317 | 37113 ft | 497 kts | 120° |
| 2026-05-04 15:00 | 42.72090 | 20.06621 | 37117 ft | 500 kts | 128° |
| 2026-05-04 15:00 | 42.67622 | 20.13890 | 37129 ft | 501 kts | 127° |
| 2026-05-04 15:01 | 42.61003 | 20.24783 | 37119 ft | 500 kts | 127° |
| 2026-05-04 15:01 | 42.56598 | 20.32080 | 37107 ft | 500 kts | 127° |
| 2026-05-04 15:02 | 42.52181 | 20.39383 | 37122 ft | 501 kts | 127° |
| 2026-05-04 15:02 | 42.47756 | 20.46676 | 37108 ft | 501 kts | 127° |
| 2026-05-04 15:03 | 42.43314 | 20.53977 | 37117 ft | 503 kts | 127° |
| 2026-05-04 15:03 | 42.38857 | 20.61286 | 37121 ft | 503 kts | 127° |
| 2026-05-04 15:04 | 42.34400 | 20.68576 | 37121 ft | 503 kts | 127° |
| 2026-05-04 15:04 | 42.29957 | 20.75825 | 37124 ft | 503 kts | 127° |
| 2026-05-04 15:05 | 42.25482 | 20.83110 | 37131 ft | 504 kts | 127° |
| 2026-05-04 15:05 | 42.20985 | 20.90360 | 37127 ft | 503 kts | 127° |
| 2026-05-04 15:06 | 42.16494 | 20.97588 | 37128 ft | 503 kts | 127° |
| 2026-05-04 15:07 | 42.10124 | 21.08681 | 37127 ft | 497 kts | 115° |
| 2026-05-04 15:07 | 42.07347 | 21.17158 | 37121 ft | 494 kts | 107° |
| 2026-05-04 15:08 | 42.04956 | 21.25797 | 37113 ft | 492 kts | 107° |
| 2026-05-04 15:08 | 42.02455 | 21.34380 | 37110 ft | 493 kts | 108° |
| 2026-05-04 15:09 | 41.99855 | 21.42922 | 37097 ft | 493 kts | 109° |
| 2026-05-04 15:09 | 41.97227 | 21.51451 | 37099 ft | 494 kts | 109° |
| 2026-05-04 15:10 | 41.92929 | 21.63957 | 37077 ft | 499 kts | 120° |
| 2026-05-04 15:11 | 41.86447 | 21.74931 | 37078 ft | 503 kts | 128° |
| 2026-05-04 15:11 | 41.81953 | 21.82118 | 37087 ft | 503 kts | 127° |
| 2026-05-04 15:12 | 41.77585 | 21.89308 | 37083 ft | 500 kts | 126° |
| 2026-05-04 15:12 | 41.73220 | 21.96571 | 37073 ft | 501 kts | 126° |
| 2026-05-04 15:13 | 41.68850 | 22.03832 | 37078 ft | 501 kts | 126° |
| 2026-05-04 15:13 | 41.64475 | 22.11074 | 37074 ft | 501 kts | 126° |
| 2026-05-04 15:14 | 41.60086 | 22.18318 | 37081 ft | 501 kts | 126° |
| 2026-05-04 15:14 | 41.55698 | 22.25541 | 37078 ft | 500 kts | 127° |
| 2026-05-04 15:15 | 41.51339 | 22.32701 | 37075 ft | 501 kts | 127° |
| 2026-05-04 15:15 | 41.46943 | 22.39903 | 37074 ft | 500 kts | 127° |
| 2026-05-04 15:16 | 41.40338 | 22.50679 | 37058 ft | 499 kts | 127° |
| 2026-05-04 15:17 | 41.33771 | 22.61291 | 37074 ft | 497 kts | 127° |
| 2026-05-04 15:17 | 41.27171 | 22.71989 | 37070 ft | 499 kts | 127° |
| 2026-05-04 15:18 | 41.22740 | 22.79100 | 37085 ft | 499 kts | 128° |
| 2026-05-04 15:19 | 41.16220 | 22.89732 | 37064 ft | 492 kts | 127° |
| 2026-05-04 15:19 | 41.09747 | 23.00244 | 37062 ft | 493 kts | 128° |
| 2026-05-04 15:20 | 41.05390 | 23.07263 | 37063 ft | 493 kts | 128° |
| 2026-05-04 15:20 | 41.01016 | 23.14289 | 37070 ft | 495 kts | 128° |
| 2026-05-04 15:21 | 40.96649 | 23.21288 | 37065 ft | 492 kts | 128° |
| 2026-05-04 15:22 | 40.90139 | 23.31694 | 37065 ft | 492 kts | 128° |
| 2026-05-04 15:22 | 40.83594 | 23.42124 | 37057 ft | 491 kts | 128° |
| 2026-05-04 15:23 | 40.79969 | 23.47884 | 37064 ft | 490 kts | 128° |
| 2026-05-04 15:23 | 40.75612 | 23.54791 | 37054 ft | 490 kts | 128° |
| 2026-05-04 15:24 | 40.66868 | 23.68553 | 37053 ft | 490 kts | 128° |
| 2026-05-04 15:25 | 40.62511 | 23.75380 | 37066 ft | 489 kts | 128° |
| 2026-05-04 15:26 | 40.55968 | 23.85650 | 37051 ft | 487 kts | 128° |
| 2026-05-04 15:26 | 40.49432 | 23.95884 | 37050 ft | 487 kts | 129° |
| 2026-05-04 15:27 | 40.42926 | 24.06034 | 37047 ft | 487 kts | 129° |
| 2026-05-04 15:28 | 40.36368 | 24.16231 | 37053 ft | 487 kts | 129° |
| 2026-05-04 15:29 | 40.29805 | 24.26403 | 37052 ft | 487 kts | 129° |
| 2026-05-04 15:30 | 40.14500 | 24.49953 | 37061 ft | 486 kts | 129° |
| 2026-05-04 15:31 | 40.07899 | 24.60019 | 37061 ft | 486 kts | 129° |
| 2026-05-04 15:32 | 39.96938 | 24.76747 | 37064 ft | 486 kts | 129° |
| 2026-05-04 15:34 | 39.85957 | 24.93418 | 37070 ft | 486 kts | 129° |
| 2026-05-04 15:34 | 39.79338 | 25.03422 | 37078 ft | 488 kts | 129° |
| 2026-05-04 15:35 | 39.72685 | 25.13444 | 37074 ft | 488 kts | 129° |
| 2026-05-04 15:36 | 39.66057 | 25.23397 | 37072 ft | 488 kts | 129° |
| 2026-05-04 15:36 | 39.61605 | 25.30047 | 37069 ft | 488 kts | 130° |
| 2026-05-04 15:37 | 39.57136 | 25.36675 | 37073 ft | 488 kts | 129° |
| 2026-05-04 15:37 | 39.52677 | 25.43306 | 37069 ft | 488 kts | 129° |
| 2026-05-04 15:38 | 39.48247 | 25.49897 | 37067 ft | 490 kts | 130° |
| 2026-05-04 15:38 | 39.43765 | 25.56555 | 37069 ft | 491 kts | 130° |
| 2026-05-04 15:39 | 39.39278 | 25.63203 | 37069 ft | 490 kts | 130° |
| 2026-05-04 15:40 | 39.32537 | 25.73165 | 37067 ft | 491 kts | 130° |
| 2026-05-04 15:40 | 39.28068 | 25.79751 | 37064 ft | 491 kts | 130° |
| 2026-05-04 15:41 | 39.23572 | 25.86363 | 37066 ft | 491 kts | 130° |
| 2026-05-04 15:41 | 39.19057 | 25.92990 | 37062 ft | 491 kts | 130° |
| 2026-05-04 15:42 | 39.14529 | 25.99622 | 37071 ft | 493 kts | 130° |
| 2026-05-04 15:42 | 39.10014 | 26.06220 | 37059 ft | 493 kts | 130° |
| 2026-05-04 15:43 | 39.05461 | 26.12826 | 37066 ft | 493 kts | 130° |
| 2026-05-04 15:43 | 39.00903 | 26.19418 | 37065 ft | 493 kts | 130° |
| 2026-05-04 15:44 | 38.96349 | 26.26021 | 37081 ft | 493 kts | 130° |
| 2026-05-04 15:44 | 38.91825 | 26.32576 | 37074 ft | 494 kts | 130° |
| 2026-05-04 15:45 | 38.87123 | 26.39002 | 37069 ft | 495 kts | 135° |
| 2026-05-04 15:45 | 38.81983 | 26.44894 | 37063 ft | 497 kts | 138° |
| 2026-05-04 15:46 | 38.76745 | 26.50673 | 37064 ft | 497 kts | 138° |
| 2026-05-04 15:46 | 38.71532 | 26.56480 | 37045 ft | 497 kts | 138° |
| 2026-05-04 15:47 | 38.66329 | 26.62315 | 37056 ft | 498 kts | 138° |
| 2026-05-04 15:47 | 38.61158 | 26.68114 | 37051 ft | 498 kts | 138° |
| 2026-05-04 15:48 | 38.55947 | 26.73946 | 37060 ft | 499 kts | 138° |
| 2026-05-04 15:48 | 38.48103 | 26.82697 | 37052 ft | 499 kts | 138° |
| 2026-05-04 15:49 | 38.42869 | 26.88521 | 37061 ft | 500 kts | 138° |
| 2026-05-04 15:49 | 38.37660 | 26.94307 | 37057 ft | 500 kts | 138° |
| 2026-05-04 15:50 | 38.32424 | 27.00109 | 37046 ft | 500 kts | 138° |
| 2026-05-04 15:50 | 38.27160 | 27.05925 | 37046 ft | 502 kts | 139° |
| 2026-05-04 15:51 | 38.21890 | 27.11763 | 37047 ft | 503 kts | 138° |
| 2026-05-04 15:51 | 38.16621 | 27.17604 | 37060 ft | 502 kts | 139° |
| 2026-05-04 15:52 | 38.11383 | 27.23401 | 37045 ft | 503 kts | 139° |
| 2026-05-04 15:52 | 38.06110 | 27.29225 | 37042 ft | 503 kts | 139° |
| 2026-05-04 15:53 | 38.00833 | 27.35040 | 37036 ft | 503 kts | 139° |
| 2026-05-04 15:53 | 37.95539 | 27.40864 | 37041 ft | 505 kts | 139° |
| 2026-05-04 15:54 | 37.90234 | 27.46688 | 37043 ft | 505 kts | 139° |
| 2026-05-04 15:54 | 37.84977 | 27.52480 | 37045 ft | 504 kts | 139° |
| 2026-05-04 15:55 | 37.79702 | 27.58328 | 37033 ft | 504 kts | 138° |
| 2026-05-04 15:55 | 37.74431 | 27.64177 | 37028 ft | 504 kts | 138° |
| 2026-05-04 15:56 | 37.69163 | 27.70009 | 37024 ft | 505 kts | 138° |
| 2026-05-04 15:56 | 37.63870 | 27.75857 | 37025 ft | 506 kts | 138° |
| 2026-05-04 15:57 | 37.58608 | 27.81658 | 37025 ft | 506 kts | 138° |
| 2026-05-04 15:57 | 37.53302 | 27.87496 | 37021 ft | 506 kts | 138° |
| 2026-05-04 15:58 | 37.47996 | 27.93321 | 37017 ft | 506 kts | 139° |
| 2026-05-04 15:58 | 37.42689 | 27.99137 | 37021 ft | 506 kts | 139° |
| 2026-05-04 15:59 | 37.37472 | 28.04844 | 36876 ft | 486 kts | 139° |
| 2026-05-04 15:59 | 37.34964 | 28.07582 | 36292 ft | 471 kts | 139° |
| 2026-05-04 15:59 | 37.32494 | 28.10276 | 35345 ft | 469 kts | 138° |
| 2026-05-04 16:00 | 37.30027 | 28.12956 | 34408 ft | 469 kts | 138° |
| 2026-05-04 16:00 | 37.27542 | 28.15634 | 33378 ft | 471 kts | 138° |
| 2026-05-04 16:00 | 37.25058 | 28.18305 | 32329 ft | 472 kts | 137° |
| 2026-05-04 16:00 | 37.22567 | 28.20985 | 31301 ft | 471 kts | 137° |
| 2026-05-04 16:01 | 37.20078 | 28.23664 | 30315 ft | 471 kts | 137° |
| 2026-05-04 16:01 | 37.17596 | 28.26337 | 29218 ft | 470 kts | 137° |
| 2026-05-04 16:01 | 37.15123 | 28.29007 | 28107 ft | 468 kts | 137° |
| 2026-05-04 16:01 | 37.12700 | 28.31634 | 27056 ft | 466 kts | 137° |
| 2026-05-04 16:02 | 37.10208 | 28.34218 | 26045 ft | 464 kts | 143° |
| 2026-05-04 16:02 | 37.07421 | 28.36237 | 25055 ft | 462 kts | 158° |
| 2026-05-04 16:02 | 37.01101 | 28.37520 | 23136 ft | 462 kts | 186° |
| 2026-05-04 16:03 | 36.97915 | 28.37187 | 22061 ft | 457 kts | 189° |
| 2026-05-04 16:03 | 36.94779 | 28.36743 | 20912 ft | 451 kts | 189° |
| 2026-05-04 16:03 | 36.91696 | 28.36359 | 19676 ft | 439 kts | 188° |
| 2026-05-04 16:03 | 36.88692 | 28.36075 | 18471 ft | 427 kts | 187° |
| 2026-05-04 16:04 | 36.85803 | 28.35871 | 17174 ft | 416 kts | 185° |
| 2026-05-04 16:04 | 36.80167 | 28.36233 | 14645 ft | 402 kts | 162° |
| 2026-05-04 16:04 | 36.77745 | 28.37869 | 13429 ft | 393 kts | 140° |
| 2026-05-04 16:05 | 36.75925 | 28.40335 | 12125 ft | 382 kts | 121° |
| 2026-05-04 16:05 | 36.74635 | 28.43179 | 10922 ft | 372 kts | 114° |
| 2026-05-04 16:05 | 36.72457 | 28.48728 | 9108 ft | 342 kts | 109° |
| 2026-05-04 16:06 | 36.71731 | 28.51485 | 8260 ft | 327 kts | 101° |
| 2026-05-04 16:06 | 36.70326 | 28.58450 | 6336 ft | 299 kts | 99° |
| 2026-05-04 16:07 | 36.69570 | 28.61726 | 5653 ft | 297 kts | 110° |
| 2026-05-04 16:07 | 36.64372 | 28.64738 | 4182 ft | 294 kts | 195° |
| 2026-05-04 16:08 | 36.62446 | 28.64022 | 3802 ft | 286 kts | 201° |
| 2026-05-04 16:08 | 36.56917 | 28.61732 | 2819 ft | 269 kts | 199° |
| 2026-05-04 16:09 | 36.53355 | 28.62368 | 2766 ft | 272 kts | 137° |
| 2026-05-04 16:09 | 36.51643 | 28.66373 | 2787 ft | 265 kts | 102° |
| 2026-05-04 16:10 | 36.50555 | 28.70742 | 2782 ft | 264 kts | 102° |
| 2026-05-04 16:11 | 36.51374 | 28.75604 | 2753 ft | 181 kts | 9° |
| 2026-05-04 16:11 | 36.52580 | 28.75765 | 2806 ft | 170 kts | 1° |
| 2026-05-04 16:12 | 36.55939 | 28.76124 | 2777 ft | 161 kts | 1° |
| 2026-05-04 16:12 | 36.59184 | 28.75636 | 2383 ft | 152 kts | 352° |
| 2026-05-04 16:13 | 36.61267 | 28.75763 | 1879 ft | 154 kts | 17° |
| 2026-05-04 16:13 | 36.63272 | 28.76598 | 1376 ft | 156 kts | 15° |
| 2026-05-04 16:14 | 36.65350 | 28.77356 | 1083 ft | 155 kts | 9° |
| 2026-05-04 16:14 | 36.67426 | 28.77938 | 618 ft | 154 kts | 10° |
| 2026-05-04 16:15 | 36.70593 | 28.79006 | 29 ft | 145 kts | 10° |
| 2026-05-04 16:16 | 36.71786 | 28.79408 | 28 ft | 47 kts | 14° |
| 2026-05-04 16:16 | 36.72199 | 28.79360 | 30 ft | 10 kts | 346° |
| 2026-05-04 16:17 | 36.72281 | 28.79294 | 29 ft | 8 kts | 287° |
| 2026-05-04 16:18 | 36.72467 | 28.79238 | 30 ft | 8 kts | 359° |
| 2026-05-04 16:18 | 36.72499 | 28.79209 | 31 ft | 6 kts | 300° |
| 2026-05-04 16:19 | 36.72512 | 28.79154 | 27 ft | 0 kts | 286° |
| 2026-05-04 16:19 | 36.72512 | 28.79155 | 27 ft | 0 kts | 286° |